Time;durP1;ratioP1;P1;durP2;ratioP2;P2;SDS_P1;SDS_P2;PMS_P1;PMS_P2;Temp;Humidity;BMP_temperature;BMP_pressure;BME280_temperature;BME280_humidity;BME280_pressure;Samples;Min_cycle;Max_cycle;Signal;HPM_P1;HPM_P2
2021/09/22 07:11:21;;;;;;;0.00;0.00;;;12.80;99.90;;;;;;4785887;30;20067;-90
2021/09/22 07:13:48;;;;;;;0.25;0.10;;;12.80;99.90;;;;;;4789253;30;20142;-91
2021/09/22 07:16:16;;;;;;;0.15;0.15;;;12.80;99.90;;;;;;4791661;30;20047;-90
2021/09/22 07:18:45;;;;;;;0.00;0.00;;;12.80;99.90;;;;;;4776572;30;20465;-90
2021/09/22 07:21:13;;;;;;;0.00;0.00;;;12.90;99.90;;;;;;4790951;30;20043;-92
2021/09/22 07:24:16;;;;;;;0.73;0.28;;;12.90;99.90;;;;;;4791642;30;20043;-93
2021/09/22 07:26:43;;;;;;;0.00;0.00;;;13.00;99.90;;;;;;4769273;30;20055;-92
2021/09/22 07:29:13;;;;;;;0.00;0.00;;;13.00;99.90;;;;;;4777094;30;20081;-93
2021/09/22 07:31:40;;;;;;;0.00;0.00;;;13.10;99.90;;;;;;4773736;30;20048;-92
2021/09/22 07:34:07;;;;;;;0.25;0.25;;;13.10;99.90;;;;;;4759499;30;20117;-91
2021/09/22 07:36:40;;;;;;;0.10;0.10;;;13.20;99.90;;;;;;4755364;30;20090;-92
2021/09/22 07:39:07;;;;;;;0.10;0.10;;;13.40;99.90;;;;;;4737971;30;20546;-93
2021/09/22 07:41:33;;;;;;;0.32;0.15;;;13.40;99.90;;;;;;4752554;30;20131;-91
2021/09/22 07:44:00;;;;;;;0.10;0.10;;;13.50;99.90;;;;;;4773522;30;20085;-92
2021/09/22 07:46:29;;;;;;;0.00;0.00;;;13.40;99.90;;;;;;4740440;30;20044;-92
2021/09/22 07:48:59;;;;;;;0.20;0.20;;;13.60;99.90;;;;;;4760153;30;20059;-89
2021/09/22 07:51:26;;;;;;;0.10;0.10;;;13.70;99.90;;;;;;4758344;30;20048;-90
2021/09/22 07:53:53;;;;;;;0.00;0.00;;;13.70;99.90;;;;;;4759135;30;20073;-92
2021/09/22 07:56:25;;;;;;;0.03;0.03;;;13.80;99.90;;;;;;4773754;30;20047;-95
2021/09/22 07:59:02;;;;;;;0.00;0.00;;;13.80;99.90;;;;;;4788381;30;20058;-91
2021/09/22 08:01:29;;;;;;;0.00;0.00;;;13.80;99.90;;;;;;4726188;30;20044;-89
2021/09/22 08:03:56;;;;;;;0.00;0.00;;;14.00;99.90;;;;;;4755565;30;20055;-90
2021/09/22 08:06:23;;;;;;;0.00;0.00;;;14.00;99.90;;;;;;4740896;30;20044;-89
2021/09/22 08:08:50;;;;;;;0.20;0.10;;;14.00;99.90;;;;;;4742203;30;20051;-89
2021/09/22 08:11:20;;;;;;;0.10;0.10;;;14.10;99.90;;;;;;4755508;30;20056;-91
2021/09/22 08:13:49;;;;;;;0.10;0.10;;;14.10;99.90;;;;;;4744801;30;20155;-94
2021/09/22 08:16:17;;;;;;;0.20;0.20;;;14.10;99.90;;;;;;4759010;30;20533;-92
2021/09/22 08:18:46;;;;;;;0.10;0.10;;;14.10;99.90;;;;;;4744559;30;20052;-90
2021/09/22 08:21:14;;;;;;;0.10;0.10;;;14.20;99.90;;;;;;4744238;30;20409;-91
2021/09/22 08:23:41;;;;;;;0.30;0.20;;;14.20;99.90;;;;;;4776163;30;20090;-90
2021/09/22 08:26:09;;;;;;;0.28;0.20;;;14.20;99.90;;;;;;4776685;30;20043;-94
2021/09/22 08:28:35;;;;;;;0.00;0.00;;;14.20;99.90;;;;;;4761906;30;20097;-89
2021/09/22 08:31:04;;;;;;;0.10;0.10;;;14.30;99.90;;;;;;4762210;30;20055;-95
2021/09/22 08:33:31;;;;;;;0.05;0.05;;;14.40;99.90;;;;;;4775845;30;20050;-91
2021/09/22 08:35:58;;;;;;;0.30;0.20;;;14.50;99.90;;;;;;4776536;30;20102;-92
2021/09/22 08:38:25;;;;;;;0.60;0.30;;;14.50;99.90;;;;;;4775793;30;20095;-92
2021/09/22 08:40:52;;;;;;;0.15;0.15;;;14.60;99.90;;;;;;4761555;30;20050;-92
2021/09/22 08:43:23;;;;;;;0.22;0.17;;;14.70;99.90;;;;;;4776787;30;20055;-93
2021/09/22 08:45:51;;;;;;;0.20;0.20;;;14.70;99.90;;;;;;4775776;30;20047;-93
2021/09/22 08:48:18;;;;;;;0.00;0.00;;;14.80;99.90;;;;;;4761510;30;20044;-91
2021/09/22 08:50:46;;;;;;;0.30;0.28;;;14.90;99.90;;;;;;4761885;30;20066;-93
2021/09/22 08:53:12;;;;;;;0.98;0.52;;;15.00;99.90;;;;;;4776144;30;20499;-90
2021/09/22 08:55:39;;;;;;;1.60;0.20;;;15.10;99.90;;;;;;4775768;30;20044;-91
2021/09/22 08:58:06;;;;;;;0.35;0.30;;;15.20;99.90;;;;;;4761061;30;20044;-92
2021/09/22 09:00:33;;;;;;;0.47;0.22;;;15.20;99.90;;;;;;4775402;30;20043;-90
2021/09/22 09:03:00;;;;;;;1.58;0.38;;;15.10;99.90;;;;;;4775873;30;20052;-90
2021/09/22 09:05:27;;;;;;;0.82;0.45;;;15.10;99.90;;;;;;4776007;30;20051;-91
2021/09/22 09:08:00;;;;;;;0.20;0.20;;;15.20;99.90;;;;;;4775568;30;20044;-92
2021/09/22 09:10:33;;;;;;;0.32;0.20;;;15.20;99.90;;;;;;4759417;30;20075;-91
2021/09/22 09:13:11;;;;;;;0.10;0.10;;;15.20;99.90;;;;;;4757883;30;20052;-91
2021/09/22 09:15:45;;;;;;;0.40;0.30;;;15.30;99.90;;;;;;4757852;30;20052;-91
2021/09/22 09:18:19;;;;;;;0.70;0.20;;;15.40;99.90;;;;;;4758152;30;20049;-92
2021/09/22 09:20:49;;;;;;;0.40;0.20;;;15.40;99.90;;;;;;4769677;30;20058;-94
2021/09/22 09:23:19;;;;;;;1.50;0.70;;;15.50;99.90;;;;;;4774568;30;20060;-91
2021/09/22 09:26:00;;;;;;;0.52;0.38;;;15.60;99.90;;;;;;4775316;30;20079;-92
2021/09/22 09:28:33;;;;;;;0.85;0.43;;;15.80;99.90;;;;;;4775435;30;20047;-92
2021/09/22 09:31:11;;;;;;;0.10;0.10;;;15.80;99.90;;;;;;4775261;30;20052;-89
2021/09/22 09:33:50;;;;;;;1.23;0.45;;;15.90;99.90;;;;;;4775221;30;20477;-91
2021/09/22 09:36:42;;;;;;;1.10;0.57;;;16.00;99.90;;;;;;4776700;30;20066;-95
2021/09/22 09:39:25;;;;;;;0.57;0.30;;;16.10;99.90;;;;;;4761046;30;20455;-90
2021/09/22 09:41:54;;;;;;;1.58;0.68;;;16.10;99.90;;;;;;4774753;30;20052;-88
2021/09/22 09:44:29;;;;;;;1.83;0.93;;;16.10;99.90;;;;;;4768788;30;20044;-91
2021/09/22 09:47:09;;;;;;;0.70;0.22;;;16.10;99.90;;;;;;4757286;30;20040;-91
2021/09/22 09:49:39;;;;;;;0.45;0.38;;;16.10;99.90;;;;;;4743297;30;20060;-90
2021/09/22 09:52:06;;;;;;;0.93;0.50;;;16.20;99.90;;;;;;4757521;30;20061;-91
2021/09/22 09:54:38;;;;;;;1.67;0.68;;;16.20;99.90;;;;;;4766392;30;20127;-92
2021/09/22 09:57:16;;;;;;;2.05;0.90;;;16.20;99.90;;;;;;4774773;30;20093;-92
2021/09/22 09:59:49;;;;;;;2.55;0.75;;;16.30;99.90;;;;;;4774380;30;20059;-90
2021/09/22 10:02:24;;;;;;;1.80;0.90;;;16.20;99.90;;;;;;4774572;30;20489;-92
2021/09/22 10:04:52;;;;;;;1.35;0.55;;;16.30;99.90;;;;;;4775319;30;20058;-93
2021/09/22 10:07:22;;;;;;;1.13;0.60;;;16.30;99.90;;;;;;4760685;30;20078;-89
2021/09/22 10:09:50;;;;;;;4.07;0.85;;;16.40;99.90;;;;;;4774122;30;20063;-89
2021/09/22 10:12:19;;;;;;;1.33;0.45;;;16.40;99.90;;;;;;4774597;30;20095;-90
2021/09/22 10:21:21;;;;;;;0.85;0.43;;;17.00;99.90;;;;;;4711268;30;20136;-94
2021/09/22 10:24:00;;;;;;;1.55;0.68;;;17.30;99.90;;;;;;4703691;30;20128;-92
2021/09/22 10:26:28;;;;;;;2.63;1.08;;;17.40;99.90;;;;;;4707239;30;20032;-92
2021/09/22 10:28:59;;;;;;;2.92;1.15;;;17.20;99.90;;;;;;4739701;30;20109;-90
2021/09/22 10:31:29;;;;;;;2.13;0.63;;;17.10;99.90;;;;;;4775264;30;20489;-92
2021/09/22 11:17:41;;;;;;;2.42;1.08;;;18.60;99.90;;;;;;4786090;30;20068;-89
2021/09/22 11:20:09;;;;;;;2.88;1.33;;;18.50;99.90;;;;;;4773348;30;20051;-89
2021/09/22 11:22:38;;;;;;;3.00;0.73;;;18.50;99.90;;;;;;4759252;30;20100;-89
2021/09/22 11:25:08;;;;;;;2.33;0.95;;;18.40;99.90;;;;;;4744856;30;20461;-91
2021/09/22 11:27:37;;;;;;;3.47;1.25;;;18.60;99.90;;;;;;4759218;30;20047;-90
2021/09/22 11:30:06;;;;;;;2.30;1.15;;;18.60;99.90;;;;;;4755841;30;20075;-90
2021/09/22 11:32:37;;;;;;;1.30;0.70;;;18.80;99.90;;;;;;4756234;30;20094;-88
2021/09/22 11:35:13;;;;;;;5.25;1.40;;;19.00;99.90;;;;;;4755903;30;20052;-89
2021/09/22 11:37:43;;;;;;;;;;;19.20;99.90;;;;;;4755807;30;20417;-89
2021/09/22 11:40:26;;;;;;;1.02;0.80;;;19.40;99.90;;;;;;4755730;30;20375;-90
2021/09/22 11:43:14;;;;;;;1.30;0.68;;;19.50;99.90;;;;;;4755844;30;20079;-89
2021/09/22 11:45:57;;;;;;;1.77;0.65;;;19.40;99.90;;;;;;4755285;30;20048;-89
2021/09/22 11:48:27;;;;;;;3.03;1.00;;;19.40;99.90;;;;;;4755237;30;20055;-90
2021/09/22 11:50:56;;;;;;;1.83;1.00;;;19.40;99.90;;;;;;4755869;30;20110;-94
2021/09/22 11:53:25;;;;;;;2.50;1.02;;;19.40;99.90;;;;;;4756154;30;20474;-91
2021/09/22 11:55:53;;;;;;;5.18;1.33;;;19.40;99.90;;;;;;4755903;30;20083;-90
2021/09/22 11:58:26;;;;;;;3.25;1.40;;;19.30;99.90;;;;;;4755288;30;20044;-94
2021/09/22 12:01:00;;;;;;;2.10;1.08;;;19.40;99.90;;;;;;4755635;30;20044;-91
2021/09/22 12:03:29;;;;;;;2.05;0.98;;;19.40;99.90;;;;;;4755462;30;20045;-91
2021/09/22 12:06:14;;;;;;;1.55;0.98;;;19.40;99.90;;;;;;4755232;30;20048;-90
2021/09/22 12:08:46;;;;;;;1.67;0.90;;;19.30;99.90;;;;;;4755366;30;20482;-90
2021/09/22 12:11:17;;;;;;;2.58;1.42;;;19.20;99.90;;;;;;4755058;30;20044;-90
2021/09/22 12:13:52;;;;;;;2.22;1.05;;;19.00;99.90;;;;;;4755075;30;20426;-89
2021/09/22 12:16:21;;;;;;;1.08;0.68;;;19.00;99.90;;;;;;4755018;30;20060;-91
2021/09/22 12:18:59;;;;;;;2.60;1.15;;;19.10;99.90;;;;;;4755390;30;20516;-91
2021/09/22 12:21:29;;;;;;;3.25;1.02;;;19.10;99.90;;;;;;4766523;30;20048;-91
2021/09/22 12:24:01;;;;;;;2.63;1.20;;;19.10;99.90;;;;;;4772748;30;20048;-91
2021/09/22 12:26:31;;;;;;;2.95;1.10;;;19.20;99.90;;;;;;4772812;30;20047;-90
2021/09/22 12:29:11;;;;;;;1.55;1.00;;;19.30;99.90;;;;;;4773219;30;20477;-91
2021/09/22 12:31:43;;;;;;;3.13;1.35;;;19.40;99.90;;;;;;4773107;30;20048;-91
2021/09/22 12:34:20;;;;;;;1.60;1.02;;;19.50;99.90;;;;;;4772718;30;20138;-91
2021/09/22 12:36:48;;;;;;;3.08;1.45;;;19.50;99.90;;;;;;4769613;30;20046;-90
2021/09/22 12:39:16;;;;;;;4.85;1.02;;;19.60;99.90;;;;;;4772644;30;20134;-90
2021/09/22 12:42:00;;;;;;;1.90;0.82;;;19.50;99.90;;;;;;4758249;30;20135;-90
2021/09/22 12:44:29;;;;;;;1.40;0.80;;;19.90;99.90;;;;;;4772536;30;20151;-89
2021/09/22 12:46:56;;;;;;;2.45;1.17;;;19.40;99.90;;;;;;4772757;30;20047;-90
2021/09/22 12:49:28;;;;;;;1.83;0.80;;;19.30;99.90;;;;;;4772680;30;20039;-89
2021/09/22 12:52:06;;;;;;;2.03;1.00;;;19.20;99.90;;;;;;4760020;30;20055;-88
2021/09/22 12:54:41;;;;;;;1.55;0.80;;;19.20;99.90;;;;;;4748825;30;20060;-90
2021/09/22 12:57:12;;;;;;;2.08;0.88;;;19.10;99.90;;;;;;4754643;30;20160;-92
2021/09/22 12:59:39;;;;;;;5.68;1.13;;;19.20;99.90;;;;;;4757979;30;20055;-90
2021/09/22 13:02:07;;;;;;;1.77;0.70;;;19.20;99.90;;;;;;4743220;30;20040;-90
2021/09/22 13:04:34;;;;;;;1.25;0.90;;;19.20;99.90;;;;;;4757949;30;20059;-90
2021/09/22 13:07:03;;;;;;;1.52;0.47;;;19.20;99.90;;;;;;4757897;30;20044;-92
2021/09/22 13:09:37;;;;;;;1.95;0.65;;;19.40;99.90;;;;;;4743617;30;20055;-90
2021/09/22 13:12:04;;;;;;;1.52;0.80;;;19.60;99.90;;;;;;4757520;30;20056;-91
2021/09/22 13:14:39;;;;;;;1.35;0.63;;;19.80;99.90;;;;;;4757787;30;20117;-92
2021/09/22 13:17:07;;;;;;;1.92;0.85;;;20.00;99.90;;;;;;4757211;30;20067;-91
2021/09/22 13:19:34;;;;;;;1.30;0.98;;;20.10;99.90;;;;;;4757513;30;20139;-91
2021/09/22 13:22:05;;;;;;;1.83;0.88;;;20.10;99.90;;;;;;4757811;30;20044;-90
2021/09/22 13:24:33;;;;;;;2.55;1.17;;;19.90;99.90;;;;;;4758022;30;20051;-91
2021/09/22 13:27:02;;;;;;;1.77;0.88;;;19.70;99.90;;;;;;4758037;30;20047;-90
2021/09/22 13:29:29;;;;;;;0.68;0.47;;;19.60;99.90;;;;;;4743178;30;20498;-91
2021/09/22 13:32:00;;;;;;;1.60;0.70;;;19.50;99.90;;;;;;4757771;30;20048;-90
2021/09/22 13:34:35;;;;;;;1.05;0.60;;;19.40;99.90;;;;;;4757536;30;20130;-90
2021/09/22 13:37:07;;;;;;;4.32;1.10;;;19.40;99.90;;;;;;4757651;30;20048;-91
2021/09/22 13:39:34;;;;;;;2.10;0.90;;;19.20;99.90;;;;;;4757825;30;20052;-90
2021/09/22 13:42:01;;;;;;;2.80;0.82;;;19.30;99.90;;;;;;4762171;30;20121;-91
2021/09/22 13:44:28;;;;;;;1.10;0.63;;;19.50;99.90;;;;;;4742906;30;20044;-91
2021/09/22 13:46:55;;;;;;;0.77;0.57;;;19.60;99.90;;;;;;4743224;30;20047;-90
2021/09/22 13:49:22;;;;;;;0.75;0.57;;;19.70;99.90;;;;;;4767064;30;20047;-90
2021/09/22 13:51:50;;;;;;;1.52;0.70;;;19.80;99.90;;;;;;4766021;30;20131;-90
2021/09/22 13:54:17;;;;;;;1.92;1.00;;;20.00;99.90;;;;;;4742929;30;20044;-91
2021/09/22 13:56:45;;;;;;;0.85;0.50;;;20.10;99.90;;;;;;4757553;30;20426;-91
2021/09/22 13:59:12;;;;;;;1.42;0.50;;;20.20;99.90;;;;;;4756715;30;20443;-90
2021/09/22 14:01:40;;;;;;;1.02;0.45;;;20.20;99.90;;;;;;4757175;30;20044;-91
2021/09/22 14:04:07;;;;;;;0.73;0.50;;;20.20;99.90;;;;;;4757031;30;20052;-91
2021/09/22 14:06:33;;;;;;;0.88;0.45;;;20.10;99.90;;;;;;4756939;30;20051;-91
2021/09/22 14:09:00;;;;;;;1.60;0.75;;;20.00;99.90;;;;;;4769536;30;20075;-92
2021/09/22 14:11:27;;;;;;;1.05;0.40;;;19.90;99.90;;;;;;4774103;30;20049;-92
2021/09/22 14:13:54;;;;;;;1.42;0.80;;;19.90;99.90;;;;;;4775004;30;20424;-91
2021/09/22 14:16:21;;;;;;;1.85;0.70;;;19.80;99.90;;;;;;4759341;30;20081;-93
2021/09/22 14:18:48;;;;;;;0.43;0.35;;;19.80;99.90;;;;;;4760901;30;20140;-89
2021/09/22 14:21:16;;;;;;;1.25;0.63;;;19.70;99.90;;;;;;4759066;30;20101;-81
2021/09/22 14:23:43;;;;;;;1.23;0.57;;;19.70;99.90;;;;;;4758989;30;20409;-80
2021/09/22 14:26:14;;;;;;;1.20;0.70;;;19.70;99.90;;;;;;4788222;30;20077;-80
2021/09/22 14:28:40;;;;;;;0.65;0.50;;;19.80;99.90;;;;;;4772761;30;20047;-81
2021/09/22 14:31:07;;;;;;;1.08;0.65;;;19.80;99.90;;;;;;4758626;30;20478;-80
2021/09/22 14:33:34;;;;;;;0.73;0.52;;;19.80;99.90;;;;;;4743212;30;20135;-81
2021/09/22 14:36:00;;;;;;;1.13;0.68;;;19.70;99.90;;;;;;4741133;30;20044;-81
2021/09/22 14:38:27;;;;;;;0.77;0.50;;;19.70;99.90;;;;;;4740886;30;20569;-80
2021/09/22 14:40:54;;;;;;;3.15;1.20;;;19.70;99.90;;;;;;4756648;30;20081;-85
2021/09/22 14:43:21;;;;;;;1.10;0.68;;;19.70;99.90;;;;;;4743858;30;20078;-85
2021/09/22 14:45:47;;;;;;;0.93;0.60;;;19.60;99.90;;;;;;4734680;30;20040;-84
2021/09/22 14:48:14;;;;;;;1.73;0.65;;;19.50;99.90;;;;;;4740844;30;20047;-83
2021/09/22 14:50:41;;;;;;;1.05;0.70;;;19.50;99.90;;;;;;4755063;30;20105;-83
2021/09/22 14:53:08;;;;;;;1.00;0.60;;;19.50;99.90;;;;;;4740619;30;20075;-85
2021/09/22 14:55:34;;;;;;;1.45;0.60;;;19.50;99.90;;;;;;4726612;30;20156;-84
2021/09/22 14:58:02;;;;;;;1.88;0.70;;;19.50;99.90;;;;;;4740911;30;20513;-84
2021/09/22 15:00:42;;;;;;;0.95;0.50;;;19.60;99.90;;;;;;4757177;30;20502;-96
2021/09/22 15:03:09;;;;;;;0.90;0.40;;;19.60;99.90;;;;;;4773982;30;20040;-90
2021/09/22 15:05:39;;;;;;;1.17;0.70;;;19.70;99.90;;;;;;4774641;30;20051;-92
2021/09/22 15:08:09;;;;;;;0.80;0.55;;;19.80;99.90;;;;;;4752751;30;20098;-91
2021/09/22 15:10:38;;;;;;;1.05;0.47;;;19.80;99.90;;;;;;4768946;30;20051;-93
2021/09/22 15:13:05;;;;;;;2.60;0.50;;;19.80;99.90;;;;;;4745327;30;20047;-89
2021/09/22 15:15:32;;;;;;;0.63;0.50;;;19.80;99.90;;;;;;4763263;30;20043;-90
2021/09/22 15:17:58;;;;;;;1.02;0.60;;;19.80;99.90;;;;;;4751264;30;20143;-89
2021/09/22 15:20:25;;;;;;;0.95;0.50;;;19.70;99.90;;;;;;4755536;30;20092;-91
2021/09/22 15:22:53;;;;;;;2.05;0.40;;;19.70;99.90;;;;;;4749991;30;20044;-92
2021/09/22 15:25:20;;;;;;;1.23;0.60;;;19.60;99.90;;;;;;4773374;30;20086;-92
2021/09/22 15:27:50;;;;;;;0.85;0.65;;;19.50;99.90;;;;;;4773504;30;20048;-92
2021/09/22 15:30:22;;;;;;;1.98;0.85;;;19.40;99.90;;;;;;4773510;30;20436;-92
2021/09/22 15:32:54;;;;;;;1.10;0.40;;;19.50;99.90;;;;;;4773857;30;20164;-93
2021/09/22 15:35:27;;;;;;;1.48;0.63;;;19.50;99.90;;;;;;4760940;30;20410;-94
2021/09/22 15:37:57;;;;;;;0.60;0.50;;;19.50;99.90;;;;;;4755976;30;20401;-93
2021/09/22 15:40:24;;;;;;;1.13;0.52;;;19.50;99.90;;;;;;4756319;30;20060;-93
2021/09/22 15:42:53;;;;;;;0.80;0.43;;;19.50;99.90;;;;;;4741444;30;20051;-93
2021/09/22 15:52:33;;;;;;;0.50;0.50;;;19.30;99.90;;;;;;4662910;31;20041;-95
2021/09/22 15:55:00;;;;;;;0.70;0.40;;;19.30;99.90;;;;;;4630704;31;20498;-92
2021/09/22 15:57:27;;;;;;;0.63;0.50;;;19.30;99.90;;;;;;4676414;30;20239;-92
2021/09/22 15:59:57;;;;;;;0.77;0.47;;;19.20;99.90;;;;;;4693586;30;20056;-94
2021/09/22 16:02:24;;;;;;;1.30;0.70;;;19.20;99.90;;;;;;4755638;30;20379;-95
2021/09/22 16:04:51;;;;;;;2.10;0.70;;;19.20;99.90;;;;;;4741061;30;20040;-94
2021/09/22 16:07:18;;;;;;;1.52;0.60;;;19.00;99.90;;;;;;4741877;30;20382;-96
2021/09/22 16:09:45;;;;;;;1.67;0.50;;;19.00;99.90;;;;;;4755315;30;20091;-93
2021/09/22 16:12:12;;;;;;;1.15;0.60;;;19.00;99.90;;;;;;4759462;30;20482;-95
2021/09/22 16:14:38;;;;;;;0.52;0.32;;;18.80;99.90;;;;;;4755046;30;20052;-95
2021/09/22 16:17:05;;;;;;;1.13;0.60;;;18.90;99.90;;;;;;4752264;30;20068;-92
2021/09/22 16:19:32;;;;;;;1.35;0.70;;;18.80;99.90;;;;;;4737429;30;20052;-91
2021/09/22 16:21:59;;;;;;;1.58;0.50;;;18.70;99.90;;;;;;4737739;30;20049;-91
2021/09/22 16:24:25;;;;;;;0.90;0.40;;;18.60;99.90;;;;;;4738360;30;20040;-95
2021/09/22 16:26:52;;;;;;;1.17;0.63;;;18.60;99.90;;;;;;4752442;30;20087;-95
2021/09/22 16:29:19;;;;;;;1.67;0.60;;;18.60;99.90;;;;;;4754590;30;20706;-96
2021/09/22 16:31:46;;;;;;;0.68;0.50;;;18.50;99.90;;;;;;4753525;30;20049;-96
2021/09/22 16:34:13;;;;;;;0.43;0.30;;;18.40;99.90;;;;;;4755733;30;20044;-90
2021/09/22 16:36:41;;;;;;;0.95;0.45;;;18.40;99.90;;;;;;4741367;30;20088;-95
2021/09/22 16:39:12;;;;;;;1.60;0.60;;;18.40;99.90;;;;;;4756977;30;20062;-94
2021/09/22 16:41:40;;;;;;;0.93;0.52;;;18.30;99.90;;;;;;4757537;30;20045;-93
2021/09/22 16:44:08;;;;;;;0.50;0.40;;;18.20;99.90;;;;;;4755615;30;20388;-93
2021/09/22 16:46:35;;;;;;;0.22;0.22;;;18.20;99.90;;;;;;4760971;30;20130;-93
2021/09/22 16:49:03;;;;;;;0.65;0.50;;;18.10;99.90;;;;;;4773905;30;20048;-96
2021/09/22 16:51:30;;;;;;;0.93;0.57;;;18.10;99.90;;;;;;4773095;30;20052;-94
2021/09/22 16:53:57;;;;;;;1.48;0.60;;;18.10;99.90;;;;;;4773024;30;20048;-89
2021/09/22 16:56:23;;;;;;;0.55;0.38;;;18.10;99.90;;;;;;4758261;30;20052;-91
2021/09/22 16:58:51;;;;;;;2.63;0.65;;;18.00;99.90;;;;;;4772747;30;20055;-94
2021/09/22 17:01:18;;;;;;;1.13;0.40;;;17.90;99.90;;;;;;4758803;30;20044;-93
2021/09/22 17:03:53;;;;;;;1.80;0.80;;;17.80;99.90;;;;;;4772658;30;20122;-93
2021/09/22 17:06:21;;;;;;;0.98;0.28;;;17.70;99.90;;;;;;4742037;30;20142;-91
2021/09/22 17:08:48;;;;;;;2.22;0.80;;;17.60;99.90;;;;;;4755231;30;20051;-91
2021/09/22 17:11:15;;;;;;;1.35;0.75;;;17.60;99.90;;;;;;4755133;30;20525;-89
2021/09/22 17:13:42;;;;;;;2.25;0.75;;;17.60;99.90;;;;;;4742494;30;20048;-90
2021/09/22 17:16:09;;;;;;;0.88;0.50;;;17.50;99.90;;;;;;4740771;30;20048;-92
2021/09/22 17:18:36;;;;;;;0.50;0.40;;;17.50;99.90;;;;;;4759963;30;20088;-90
2021/09/22 17:21:03;;;;;;;2.08;0.82;;;17.40;99.90;;;;;;4757392;30;20088;-90
2021/09/22 17:23:29;;;;;;;0.50;0.30;;;17.40;99.90;;;;;;4772509;30;20044;-90
2021/09/22 17:25:56;;;;;;;0.88;0.45;;;17.30;99.90;;;;;;4772349;30;20048;-88
2021/09/22 17:28:29;;;;;;;0.93;0.50;;;17.30;99.90;;;;;;4772166;30;20048;-91
2021/09/22 17:30:56;;;;;;;0.43;0.40;;;17.20;99.90;;;;;;4771823;30;20054;-92
2021/09/22 17:33:23;;;;;;;1.13;0.57;;;17.10;99.90;;;;;;4771991;30;20139;-91
2021/09/22 17:35:50;;;;;;;1.00;0.50;;;17.00;99.90;;;;;;4757172;30;20054;-91
2021/09/22 17:38:17;;;;;;;2.08;0.75;;;17.00;99.90;;;;;;4750728;30;20512;-91
2021/09/22 17:40:44;;;;;;;0.90;0.38;;;17.00;99.90;;;;;;4753143;30;20049;-91
2021/09/22 17:43:13;;;;;;;1.92;0.68;;;17.00;99.90;;;;;;4739301;30;20486;-93
2021/09/22 17:45:50;;;;;;;;;;;;;;;;;;;;;
2021/09/22 17:48:17;;;;;;;0.60;0.50;;;16.90;99.90;;;;;;4765853;30;20039;-93
2021/09/22 17:50:58;;;;;;;0.63;0.50;;;16.80;99.90;;;;;;4736929;30;20046;-94
2021/09/22 17:53:24;;;;;;;0.95;0.55;;;16.80;99.90;;;;;;4772470;30;20052;-91
2021/09/22 17:55:52;;;;;;;1.52;0.70;;;16.70;99.90;;;;;;4762089;30;20048;-92
2021/09/22 17:58:21;;;;;;;1.00;0.57;;;16.60;99.90;;;;;;4761380;30;20106;-91
2021/09/22 18:00:48;;;;;;;0.20;0.20;;;16.60;99.90;;;;;;4756841;30;20048;-92
2021/09/22 18:03:15;;;;;;;1.25;0.60;;;16.50;99.90;;;;;;4756240;30;20135;-92
2021/09/22 18:05:42;;;;;;;0.32;0.30;;;16.40;99.90;;;;;;4769417;30;20044;-91
2021/09/22 18:08:09;;;;;;;1.05;0.38;;;16.40;99.90;;;;;;4756641;30;20048;-93
2021/09/22 18:10:36;;;;;;;0.95;0.63;;;16.30;99.90;;;;;;4771921;30;20044;-92
2021/09/22 18:13:03;;;;;;;1.65;0.43;;;16.30;99.90;;;;;;4760131;30;20139;-92
2021/09/22 18:15:29;;;;;;;1.15;0.63;;;16.20;99.90;;;;;;4739579;30;20044;-92
2021/09/22 18:17:57;;;;;;;0.50;0.30;;;16.20;99.90;;;;;;4753378;30;20064;-91
2021/09/22 18:20:24;;;;;;;1.15;0.75;;;16.10;99.90;;;;;;4739103;30;20052;-91
2021/09/22 18:22:50;;;;;;;1.13;0.70;;;16.10;99.90;;;;;;4753780;30;20049;-91
2021/09/22 18:25:17;;;;;;;0.75;0.50;;;16.00;99.90;;;;;;4739168;30;20088;-92
2021/09/22 18:27:44;;;;;;;3.28;0.80;;;16.00;99.90;;;;;;4739436;30;20040;-91
2021/09/22 18:30:11;;;;;;;2.40;0.90;;;15.90;99.90;;;;;;4753679;30;20127;-91
2021/09/22 18:32:38;;;;;;;1.70;0.68;;;15.90;99.90;;;;;;4753788;30;20565;-91
2021/09/22 18:35:06;;;;;;;1.00;0.52;;;15.90;99.90;;;;;;4724687;30;20087;-92
2021/09/22 18:37:33;;;;;;;1.75;0.80;;;15.90;99.90;;;;;;4753730;30;20048;-92
2021/09/22 18:40:01;;;;;;;2.38;0.70;;;15.80;99.90;;;;;;4753922;30;20054;-92
2021/09/22 18:42:28;;;;;;;0.68;0.60;;;15.80;99.90;;;;;;4756197;30;20144;-91
2021/09/22 18:44:55;;;;;;;1.40;0.75;;;15.80;99.90;;;;;;4770825;30;20076;-92
2021/09/22 18:47:25;;;;;;;1.23;0.80;;;15.70;99.90;;;;;;4742139;30;20115;-92
2021/09/22 18:49:54;;;;;;;1.08;0.70;;;15.60;99.90;;;;;;4770410;30;20113;-92
2021/09/22 18:52:21;;;;;;;1.90;0.88;;;15.60;99.90;;;;;;4766754;30;20051;-92
2021/09/22 18:54:48;;;;;;;1.40;0.60;;;15.60;99.90;;;;;;4753672;30;20048;-92
2021/09/22 18:57:16;;;;;;;0.25;0.20;;;15.50;99.90;;;;;;4752588;30;20063;-92
2021/09/22 18:59:43;;;;;;;0.70;0.30;;;15.40;99.90;;;;;;4738717;30;20052;-92
2021/09/22 19:02:10;;;;;;;0.40;0.28;;;15.40;99.90;;;;;;4753053;30;20410;-92
2021/09/22 19:04:36;;;;;;;1.65;0.52;;;15.40;99.90;;;;;;4763336;30;20040;-92
2021/09/22 19:07:05;;;;;;;1.27;0.60;;;15.30;99.90;;;;;;4770308;30;20039;-92
2021/09/22 19:09:32;;;;;;;0.57;0.40;;;15.20;99.90;;;;;;4762775;30;20049;-93
2021/09/22 19:11:59;;;;;;;0.20;0.20;;;15.20;99.90;;;;;;4752581;30;20054;-92
2021/09/22 19:14:27;;;;;;;0.47;0.30;;;15.20;99.90;;;;;;4753071;30;20087;-92
2021/09/22 19:16:55;;;;;;;0.40;0.30;;;15.10;99.90;;;;;;4752218;30;20068;-92
2021/09/22 19:19:22;;;;;;;0.57;0.40;;;15.10;99.90;;;;;;4752217;30;20119;-91
2021/09/22 19:21:49;;;;;;;0.35;0.30;;;15.10;99.90;;;;;;4753058;30;20045;-92
2021/09/22 19:24:20;;;;;;;0.13;0.13;;;15.10;99.90;;;;;;4752601;30;20048;-92
2021/09/22 19:26:47;;;;;;;0.22;0.20;;;15.00;99.90;;;;;;4738421;30;20044;-93
2021/09/22 19:29:14;;;;;;;0.25;0.20;;;15.00;99.90;;;;;;4762476;30;20106;-93
2021/09/22 19:31:42;;;;;;;0.52;0.43;;;15.00;99.90;;;;;;4765236;30;20048;-92
2021/09/22 19:34:09;;;;;;;1.05;0.45;;;14.90;99.90;;;;;;4755413;30;20080;-92
2021/09/22 19:36:39;;;;;;;1.00;0.40;;;14.90;99.90;;;;;;4770429;30;20100;-91
2021/09/22 19:39:07;;;;;;;0.77;0.43;;;14.90;99.90;;;;;;4766942;30;20044;-92
2021/09/22 19:41:37;;;;;;;0.35;0.22;;;14.80;99.90;;;;;;4745706;30;20056;-92
2021/09/22 19:44:05;;;;;;;0.03;0.03;;;14.80;99.90;;;;;;4752932;30;20098;-91
2021/09/22 19:46:35;;;;;;;0.40;0.20;;;14.70;99.90;;;;;;4759758;30;20467;-92
2021/09/22 19:49:05;;;;;;;0.47;0.30;;;14.70;99.90;;;;;;4765254;30;20135;-92
2021/09/22 19:51:32;;;;;;;0.15;0.15;;;14.70;99.90;;;;;;4754868;30;20084;-92
2021/09/22 19:54:09;;;;;;;0.60;0.22;;;14.70;99.90;;;;;;4757240;30;20059;-93
2021/09/22 19:56:39;;;;;;;0.98;0.45;;;14.70;99.90;;;;;;4741551;30;20450;-92
2021/09/22 19:59:08;;;;;;;0.60;0.30;;;14.60;99.90;;;;;;4748367;30;20131;-92
2021/09/22 20:01:36;;;;;;;0.50;0.25;;;14.60;99.90;;;;;;4756308;30;20055;-92
2021/09/22 20:04:03;;;;;;;0.40;0.40;;;14.50;99.90;;;;;;4740973;30;20407;-92
2021/09/22 20:06:30;;;;;;;0.60;0.38;;;14.50;99.90;;;;;;4755371;30;20498;-92
2021/09/22 20:08:57;;;;;;;0.22;0.22;;;14.50;99.90;;;;;;4763342;30;20113;-92
2021/09/22 20:11:25;;;;;;;0.32;0.22;;;14.50;99.90;;;;;;4758009;30;20055;-92
2021/09/22 20:13:53;;;;;;;0.63;0.38;;;14.50;99.90;;;;;;4755785;30;20510;-92
2021/09/22 20:16:21;;;;;;;0.30;0.30;;;14.50;99.90;;;;;;4743821;30;20624;-92
2021/09/22 20:18:50;;;;;;;0.30;0.25;;;14.40;99.90;;;;;;4759654;30;20083;-91
2021/09/22 20:21:17;;;;;;;0.10;0.10;;;14.40;99.90;;;;;;4761362;30;20049;-93
2021/09/22 20:23:44;;;;;;;0.10;0.10;;;14.40;99.90;;;;;;4741410;30;20624;-91
2021/09/22 20:26:12;;;;;;;0.20;0.20;;;14.40;99.90;;;;;;4755422;30;20041;-92
2021/09/22 20:28:42;;;;;;;1.35;0.60;;;14.40;99.90;;;;;;4755785;30;20132;-92
2021/09/22 20:31:10;;;;;;;2.30;0.32;;;14.30;99.90;;;;;;4761877;30;20048;-92
2021/09/22 20:33:38;;;;;;;0.20;0.20;;;14.30;99.90;;;;;;4755401;30;20040;-92
2021/09/22 20:36:06;;;;;;;1.80;0.75;;;14.30;99.90;;;;;;4758721;30;20040;-92
2021/09/22 20:38:34;;;;;;;0.20;0.20;;;14.20;99.90;;;;;;4741557;30;20566;-92
2021/09/22 20:41:02;;;;;;;0.05;0.05;;;14.20;99.90;;;;;;4755139;30;20084;-92
2021/09/22 20:43:29;;;;;;;0.08;0.08;;;14.10;99.90;;;;;;4755606;30;20525;-92
2021/09/22 20:45:58;;;;;;;0.35;0.25;;;14.30;99.90;;;;;;4756287;30;20066;-92
2021/09/22 20:48:25;;;;;;;0.77;0.35;;;14.00;99.90;;;;;;4740906;30;20059;-92
2021/09/22 20:50:53;;;;;;;0.45;0.20;;;14.00;99.90;;;;;;4745236;30;20405;-93
2021/09/22 20:53:20;;;;;;;0.25;0.25;;;13.90;99.90;;;;;;4758562;30;20043;-92
2021/09/22 20:55:47;;;;;;;0.75;0.43;;;13.90;99.90;;;;;;4772681;30;20051;-92
2021/09/22 20:58:15;;;;;;;0.80;0.52;;;13.90;99.90;;;;;;4762962;30;20051;-92
2021/09/22 21:00:42;;;;;;;0.75;0.30;;;13.80;99.90;;;;;;4765946;30;20482;-92
2021/09/22 21:03:09;;;;;;;0.35;0.20;;;13.80;99.90;;;;;;4756033;30;20145;-93
2021/09/22 21:05:38;;;;;;;0.13;0.13;;;13.70;99.90;;;;;;4755389;30;20048;-92